createdAt,value
2022-11-27T00:01:27.597Z,27.38
2022-11-27T00:03:56.581Z,26.58
2022-11-27T00:06:26.440Z,27.70
2022-11-27T00:08:56.337Z,27.83
2022-11-27T00:11:25.817Z,27.42
2022-11-27T00:13:53.491Z,26.17
2022-11-27T00:16:22.629Z,25.42
2022-11-27T00:18:50.636Z,25.02
2022-11-27T00:21:27.518Z,24.08
2022-11-27T00:26:23.711Z,24.58
2022-11-27T00:28:51.861Z,26.60
2022-11-27T00:31:29.187Z,22.92
2022-11-27T00:33:59.667Z,25.92
2022-11-27T00:36:29.105Z,27.15
2022-11-27T00:38:56.891Z,22.95
2022-11-27T00:41:26.907Z,24.83
2022-11-27T00:43:55.045Z,24.05
2022-11-27T00:46:28.844Z,22.98
2022-11-27T00:48:57.820Z,22.35
2022-11-27T00:51:26.068Z,21.92
2022-11-27T00:53:53.879Z,22.15
2022-11-27T00:56:26.052Z,22.35
2022-11-27T00:58:53.868Z,22.75
2022-11-27T01:01:29.793Z,22.55
2022-11-27T01:03:58.753Z,21.83
2022-11-27T01:06:27.872Z,22.42
2022-11-27T01:08:55.420Z,22.60
2022-11-27T01:11:29.427Z,22.40
2022-11-27T01:13:59.500Z,22.15
2022-11-27T01:16:29.486Z,22.48
2022-11-27T01:18:59.277Z,23.02
2022-11-27T01:21:30.351Z,22.02
2022-11-27T01:23:58.747Z,21.67
2022-11-27T01:26:26.376Z,22.40
2022-11-27T01:28:55.974Z,22.70
2022-11-27T01:31:27.257Z,23.17
2022-11-27T01:33:57.464Z,22.33
2022-11-27T01:36:25.089Z,21.80
2022-11-27T01:38:52.878Z,22.10
2022-11-27T01:41:26.092Z,22.27
2022-11-27T01:43:56.823Z,21.70
2022-11-27T01:46:33.166Z,21.77
2022-11-27T01:49:14.313Z,21.77
2022-11-27T01:51:47.097Z,22.92
2022-11-27T01:54:16.315Z,22.33
2022-11-27T01:56:46.578Z,21.77
2022-11-27T01:59:16.162Z,20.80
2022-11-27T02:01:43.652Z,21.23
2022-11-27T02:04:11.131Z,21.33
2022-11-27T02:06:38.580Z,21.63
2022-11-27T02:09:06.302Z,21.80
2022-11-27T02:11:52.231Z,22.15
2022-11-27T02:14:25.657Z,22.15
2022-11-27T02:16:59.163Z,21.90
2022-11-27T02:20:04.167Z,21.38
2022-11-27T02:23:09.229Z,21.77
2022-11-27T02:26:03.760Z,20.98
2022-11-27T02:29:02.533Z,20.90
2022-11-27T02:31:58.426Z,21.27
2022-11-27T02:34:35.577Z,21.38
2022-11-27T02:37:15.799Z,20.15
2022-11-27T02:39:58.444Z,21.42
2022-11-27T02:42:29.089Z,21.33
2022-11-27T02:45:04.556Z,20.75
2022-11-27T02:47:32.597Z,19.73
2022-11-27T02:50:02.355Z,20.85
2022-11-27T02:52:31.619Z,20.85
2022-11-27T02:55:05.031Z,20.70
2022-11-27T02:57:34.533Z,20.23
2022-11-27T03:00:02.489Z,19.92
2022-11-27T03:02:37.433Z,20.02
2022-11-27T03:05:09.971Z,20.45
2022-11-27T03:07:46.998Z,20.25
2022-11-27T03:10:47.409Z,20.02
2022-11-27T03:13:15.106Z,20.15
2022-11-27T03:16:16.100Z,19.45
2022-11-27T03:18:57.957Z,18.00
2022-11-27T03:21:38.994Z,20.33
2022-11-27T03:24:08.860Z,19.17
2022-11-27T03:26:37.932Z,18.95
2022-11-27T03:29:11.091Z,18.75
2022-11-27T03:31:38.841Z,17.98
2022-11-27T03:34:06.787Z,17.98
2022-11-27T03:36:34.287Z,18.58
2022-11-27T03:39:02.355Z,17.65
2022-11-27T03:41:41.963Z,18.02
2022-11-27T03:44:14.558Z,17.75
2022-11-27T03:47:25.765Z,16.90
2022-11-27T03:50:41.195Z,17.67
2022-11-27T03:53:17.281Z,16.02
2022-11-27T03:56:09.668Z,16.88
2022-11-27T03:58:58.765Z,16.25
2022-11-27T04:01:28.371Z,15.40
2022-11-27T04:03:56.070Z,16.23
2022-11-27T04:06:23.631Z,16.48
2022-11-27T04:08:51.197Z,15.88
2022-11-27T04:11:18.867Z,15.48
2022-11-27T04:13:46.406Z,15.75
2022-11-27T04:16:13.897Z,15.25
2022-11-27T04:18:41.390Z,15.18
2022-11-27T04:21:08.896Z,15.65
2022-11-27T04:23:38.482Z,15.13
2022-11-27T04:26:05.999Z,15.07
2022-11-27T04:28:33.474Z,14.57
2022-11-27T04:31:01.145Z,14.48
2022-11-27T04:33:28.671Z,14.95
2022-11-27T04:35:56.179Z,14.30
2022-11-27T04:38:23.755Z,14.15
2022-11-27T04:40:54.151Z,14.18
2022-11-27T04:43:21.712Z,14.05
2022-11-27T04:45:49.215Z,14.02
2022-11-27T04:48:16.647Z,13.88
2022-11-27T04:50:44.076Z,13.23
2022-11-27T04:53:11.527Z,13.40
2022-11-27T04:55:38.920Z,13.70
2022-11-27T04:58:06.358Z,12.98
2022-11-27T05:00:33.860Z,13.95
2022-11-27T05:03:01.421Z,13.30
2022-11-27T05:05:29.027Z,12.48
2022-11-27T05:07:56.619Z,12.80
2022-11-27T05:10:24.292Z,12.32
2022-11-27T05:12:51.742Z,12.32
2022-11-27T05:15:19.403Z,11.32
2022-11-27T05:17:46.822Z,12.02
2022-11-27T05:20:14.238Z,12.30
2022-11-27T05:22:41.797Z,11.68
2022-11-27T05:25:09.600Z,12.77
2022-11-27T05:27:37.096Z,11.77
2022-11-27T05:30:05.026Z,11.80
2022-11-27T05:32:32.408Z,11.77
2022-11-27T05:34:59.857Z,11.30
2022-11-27T05:37:27.404Z,12.13
2022-11-27T05:39:54.898Z,11.30
2022-11-27T05:42:22.413Z,11.35
2022-11-27T05:44:53.925Z,11.00
2022-11-27T05:47:24.259Z,10.88
2022-11-27T05:49:51.790Z,10.82
2022-11-27T05:52:19.280Z,11.15
2022-11-27T05:54:46.727Z,11.05
2022-11-27T05:57:14.176Z,11.40
2022-11-27T05:59:41.592Z,11.20
2022-11-27T06:02:09.092Z,11.13
2022-11-27T06:04:36.628Z,10.52
2022-11-27T06:07:04.290Z,11.13
2022-11-27T06:09:31.725Z,11.02
2022-11-27T06:11:59.353Z,10.77
2022-11-27T06:14:26.752Z,11.30
2022-11-27T06:16:54.223Z,10.90
2022-11-27T06:19:21.766Z,10.93
2022-11-27T06:21:49.231Z,10.85
2022-11-27T06:24:16.644Z,10.25
2022-11-27T06:26:44.111Z,10.23
2022-11-27T06:29:11.757Z,10.65
2022-11-27T06:31:39.976Z,10.32
2022-11-27T06:34:07.804Z,10.73
2022-11-27T06:36:37.702Z,10.75
2022-11-27T06:39:06.074Z,10.63
2022-11-27T06:41:33.866Z,9.70
2022-11-27T06:44:02.190Z,10.32
2022-11-27T06:46:30.177Z,10.02
2022-11-27T06:48:58.654Z,10.18
2022-11-27T06:51:28.366Z,9.85
2022-11-27T06:53:56.448Z,10.27
2022-11-27T06:56:27.082Z,9.23
2022-11-27T06:58:56.852Z,9.95
2022-11-27T07:01:28.666Z,9.75
2022-11-27T07:03:56.610Z,9.20
2022-11-27T07:06:25.721Z,9.30
2022-11-27T07:08:54.396Z,9.20
2022-11-27T07:11:24.894Z,9.60
2022-11-27T07:13:54.842Z,9.88
2022-11-27T07:16:22.383Z,9.57
2022-11-27T07:18:53.646Z,9.90
2022-11-27T07:21:21.741Z,8.95
2022-11-27T07:23:49.260Z,9.60
2022-11-27T07:26:19.368Z,9.05
2022-11-27T07:28:47.572Z,9.43
2022-11-27T07:31:21.948Z,8.68
2022-11-27T07:33:51.804Z,9.50
2022-11-27T07:36:22.593Z,8.80
2022-11-27T07:38:51.025Z,8.98
2022-11-27T07:41:18.517Z,9.65
2022-11-27T07:43:46.750Z,8.70
2022-11-27T07:46:18.655Z,8.05
2022-11-27T07:48:46.235Z,9.05
2022-11-27T07:51:16.851Z,9.00
2022-11-27T07:53:44.481Z,8.98
2022-11-27T07:56:14.483Z,8.82
2022-11-27T07:58:42.000Z,8.95
2022-11-27T08:01:11.961Z,9.07
2022-11-27T08:03:40.028Z,9.23
2022-11-27T08:06:16.000Z,8.25
2022-11-27T08:08:43.820Z,8.00
2022-11-27T08:11:29.921Z,8.40
2022-11-27T08:14:00.117Z,8.18
2022-11-27T08:16:28.967Z,8.43
2022-11-27T08:18:56.634Z,7.70
2022-11-27T08:21:24.473Z,8.27
2022-11-27T08:23:51.997Z,7.65
2022-11-27T08:26:20.932Z,8.20
2022-11-27T08:28:48.390Z,8.30
2022-11-27T08:31:16.030Z,8.52
2022-11-27T08:33:43.624Z,8.10
2022-11-27T08:36:16.285Z,8.43
2022-11-27T08:38:46.147Z,8.57
2022-11-27T08:41:13.683Z,8.18
2022-11-27T08:43:41.151Z,8.07
2022-11-27T08:46:08.759Z,8.77
2022-11-27T08:48:36.840Z,10.18
2022-11-27T08:51:10.373Z,9.77
2022-11-27T08:53:38.288Z,10.80
2022-11-27T08:56:08.214Z,9.95
2022-11-27T08:58:35.908Z,10.75
2022-11-27T09:01:21.865Z,10.45
2022-11-27T09:03:49.978Z,10.25
2022-11-27T09:06:21.487Z,10.05
2022-11-27T09:08:50.064Z,9.25
2022-11-27T09:11:20.179Z,9.35
2022-11-27T09:13:47.980Z,10.23
2022-11-27T09:16:18.212Z,8.82
2022-11-27T09:18:47.682Z,9.85
2022-11-27T09:21:17.112Z,8.82
2022-11-27T09:23:45.058Z,9.38
2022-11-27T09:26:17.171Z,8.80
2022-11-27T09:28:45.444Z,8.65
2022-11-27T09:31:15.019Z,9.18
2022-11-27T09:33:43.341Z,8.73
2022-11-27T09:36:16.485Z,8.73
2022-11-27T09:38:44.753Z,8.85
2022-11-27T09:41:12.121Z,8.80
2022-11-27T09:43:59.413Z,8.77
2022-11-27T09:46:32.010Z,8.30
2022-11-27T09:49:03.085Z,8.80
2022-11-27T09:51:54.940Z,9.05
2022-11-27T09:54:41.311Z,8.93
2022-11-27T09:57:15.699Z,9.65
2022-11-27T09:59:51.848Z,9.35
2022-11-27T10:02:32.041Z,9.38
2022-11-27T10:05:14.029Z,9.10
2022-11-27T10:08:04.710Z,9.27
2022-11-27T10:10:39.192Z,9.88
2022-11-27T10:13:22.150Z,10.30
2022-11-27T10:16:07.934Z,10.32
2022-11-27T10:18:47.964Z,10.63
2022-11-27T10:21:17.472Z,10.23
2022-11-27T10:23:50.756Z,10.68
2022-11-27T10:26:25.760Z,11.60
2022-11-27T10:29:33.854Z,11.60
2022-11-27T10:32:22.108Z,10.68
2022-11-27T10:35:07.176Z,10.75
2022-11-27T10:37:43.705Z,10.52
2022-11-27T10:40:14.172Z,10.52
2022-11-27T10:43:18.671Z,10.70
2022-11-27T10:45:56.618Z,10.30
2022-11-27T10:48:24.830Z,10.48
2022-11-27T10:50:52.306Z,9.95
2022-11-27T10:53:37.239Z,10.15
2022-11-27T10:56:04.656Z,9.95
2022-11-27T10:58:34.944Z,10.48
2022-11-27T11:01:09.303Z,10.10
2022-11-27T11:03:37.563Z,9.35
2022-11-27T11:06:20.801Z,9.85
2022-11-27T11:09:03.015Z,9.75
2022-11-27T11:11:30.540Z,9.85
2022-11-27T11:13:58.068Z,9.32
2022-11-27T11:16:34.768Z,9.63
2022-11-27T11:19:03.737Z,8.75
2022-11-27T11:21:38.750Z,9.85
2022-11-27T11:24:19.243Z,8.90
2022-11-27T11:26:50.560Z,9.90
2022-11-27T11:29:31.092Z,10.45
2022-11-27T11:32:14.848Z,9.50
2022-11-27T11:35:00.422Z,9.88
2022-11-27T11:37:44.592Z,10.50
2022-11-27T11:40:16.541Z,10.48
2022-11-27T11:42:58.879Z,10.13
2022-11-27T11:45:33.117Z,9.30
2022-11-27T11:48:25.341Z,9.57
2022-11-27T11:50:59.577Z,8.88
2022-11-27T11:53:45.644Z,9.50
2022-11-27T11:56:22.675Z,10.15
2022-11-27T11:59:15.103Z,10.07
2022-11-27T12:01:45.309Z,9.75
2022-11-27T12:04:31.379Z,9.45
2022-11-27T12:06:58.813Z,9.65
2022-11-27T12:09:44.796Z,9.57
2022-11-27T12:12:34.297Z,9.40
2022-11-27T12:15:16.732Z,11.60
2022-11-27T12:18:25.681Z,11.05
2022-11-27T12:21:12.137Z,10.20
2022-11-27T12:24:14.686Z,10.13
2022-11-27T12:27:33.979Z,10.35
2022-11-27T12:30:39.696Z,9.65
2022-11-27T12:33:20.344Z,10.27
2022-11-27T12:36:35.723Z,10.02
2022-11-27T12:39:28.444Z,10.00
2022-11-27T12:42:08.536Z,10.20
2022-11-27T12:45:08.201Z,10.23
2022-11-27T12:47:40.992Z,10.25
2022-11-27T12:50:17.340Z,9.20
2022-11-27T12:52:49.648Z,9.07
2022-11-27T12:55:23.356Z,10.07
2022-11-27T12:58:04.864Z,9.68
2022-11-27T13:00:37.434Z,8.88
2022-11-27T13:03:21.800Z,9.68
2022-11-27T13:06:08.681Z,10.88
2022-11-27T13:08:45.280Z,9.55
2022-11-27T13:11:20.214Z,9.80
2022-11-27T13:13:52.120Z,10.00
2022-11-27T13:16:27.394Z,10.05
2022-11-27T13:19:06.820Z,9.82
2022-11-27T13:21:36.350Z,9.48
2022-11-27T13:24:04.228Z,10.00
2022-11-27T13:26:45.769Z,11.05
2022-11-27T13:29:28.425Z,11.23
2022-11-27T13:32:00.512Z,11.07
2022-11-27T13:34:30.987Z,11.43
2022-11-27T13:37:02.483Z,10.73
2022-11-27T13:39:40.110Z,11.27
2022-11-27T13:42:21.162Z,10.90
2022-11-27T13:45:06.407Z,10.38
2022-11-27T13:47:43.876Z,10.32
2022-11-27T13:50:18.193Z,9.77
2022-11-27T13:53:04.314Z,10.52
2022-11-27T13:55:38.964Z,10.45
2022-11-27T13:58:08.217Z,10.02
2022-11-27T14:00:39.385Z,10.80
2022-11-27T14:03:10.699Z,11.50
2022-11-27T14:05:44.012Z,11.52
2022-11-27T14:08:35.099Z,11.40
2022-11-27T14:11:08.607Z,11.50
2022-11-27T14:13:46.284Z,12.05
2022-11-27T14:16:23.066Z,12.50
2022-11-27T14:21:44.138Z,11.15
2022-11-27T14:24:25.205Z,11.27
2022-11-27T14:26:54.584Z,11.05
2022-11-27T14:29:25.657Z,11.32
2022-11-27T14:31:58.911Z,11.48
2022-11-27T14:34:31.333Z,12.55
2022-11-27T14:37:00.130Z,11.63
2022-11-27T14:39:33.203Z,11.98
2022-11-27T14:42:02.395Z,11.93
2022-11-27T14:44:30.705Z,11.45
2022-11-27T14:47:02.283Z,12.60
2022-11-27T14:49:31.909Z,12.23
2022-11-27T14:52:05.860Z,12.55
2022-11-27T14:54:36.994Z,12.70
2022-11-27T14:57:05.996Z,13.80
2022-11-27T14:59:33.615Z,12.00
2022-11-27T15:02:22.239Z,12.65
2022-11-27T15:05:04.128Z,12.60
2022-11-27T15:07:37.641Z,13.48
2022-11-27T15:10:38.252Z,13.93
2022-11-27T15:13:08.709Z,13.02
2022-11-27T15:15:43.687Z,13.48
2022-11-27T15:18:20.836Z,13.15
2022-11-27T15:20:48.843Z,13.77
2022-11-27T15:23:18.196Z,12.88
2022-11-27T15:25:49.267Z,13.77
2022-11-27T15:28:36.721Z,13.20
2022-11-27T15:31:25.382Z,13.55
2022-11-27T15:34:05.155Z,13.50
2022-11-27T15:36:40.528Z,13.77
2022-11-27T15:39:22.129Z,14.95
2022-11-27T15:42:09.620Z,13.25
2022-11-27T15:44:38.363Z,12.98
2022-11-27T15:47:07.136Z,13.30
2022-11-27T15:49:34.628Z,13.63
2022-11-27T15:52:02.149Z,14.00
2022-11-27T15:54:29.632Z,14.82
2022-11-27T15:56:58.464Z,13.93
2022-11-27T15:59:27.270Z,13.75
2022-11-27T16:01:56.132Z,13.40
2022-11-27T16:04:24.173Z,13.95
2022-11-27T16:06:52.040Z,13.98
2022-11-27T16:09:19.850Z,14.55
2022-11-27T16:11:47.399Z,13.73
2022-11-27T16:14:14.998Z,13.90
2022-11-27T16:16:42.573Z,14.18
2022-11-27T16:19:12.293Z,13.85
2022-11-27T16:21:39.856Z,13.70
2022-11-27T16:24:13.644Z,14.57
2022-11-27T16:26:41.298Z,14.30
2022-11-27T16:29:09.956Z,14.02
2022-11-27T16:31:37.862Z,14.52
2022-11-27T16:34:06.619Z,14.20
2022-11-27T16:36:34.565Z,13.63
2022-11-27T16:39:03.120Z,14.35
2022-11-27T16:41:30.996Z,14.45
2022-11-27T16:43:58.568Z,13.65
2022-11-27T16:46:29.456Z,14.05
2022-11-27T16:48:59.091Z,14.07
2022-11-27T16:51:31.288Z,14.05
2022-11-27T16:54:03.100Z,14.45
2022-11-27T16:56:33.440Z,14.35
2022-11-27T16:59:11.417Z,14.15
2022-11-27T17:01:41.668Z,14.65
2022-11-27T17:04:16.372Z,12.98
2022-11-27T17:06:45.604Z,12.80
2022-11-27T17:09:14.135Z,13.85
2022-11-27T17:11:45.419Z,13.38
2022-11-27T17:14:13.407Z,13.10
2022-11-27T17:16:42.670Z,14.18
2022-11-27T17:19:13.292Z,13.55
2022-11-27T17:21:42.704Z,14.45
2022-11-27T17:24:15.225Z,14.00
2022-11-27T17:26:47.642Z,13.57
2022-11-27T17:29:18.941Z,14.07
2022-11-27T17:31:47.194Z,13.95
2022-11-27T17:34:16.888Z,14.73
2022-11-27T17:36:45.981Z,14.32
2022-11-27T17:39:15.630Z,35.38
2022-11-27T17:41:46.979Z,67.20
2022-11-27T17:44:15.300Z,66.38
2022-11-27T17:46:50.058Z,60.33
2022-11-27T17:49:21.962Z,56.85
2022-11-27T17:51:51.400Z,48.67
2022-11-27T17:54:20.789Z,49.15
2022-11-27T17:56:51.353Z,47.47
2022-11-27T17:59:20.896Z,45.63
2022-11-27T18:01:51.372Z,42.85
2022-11-27T18:04:20.603Z,40.83
2022-11-27T18:06:48.527Z,40.15
2022-11-27T18:09:16.216Z,38.83
2022-11-27T18:11:44.020Z,38.78
2022-11-27T18:14:13.656Z,36.95
2022-11-27T18:16:42.158Z,36.47
2022-11-27T18:19:11.916Z,35.42
2022-11-27T18:21:40.276Z,34.22
2022-11-27T18:24:22.958Z,33.53
2022-11-27T18:27:08.129Z,33.75
2022-11-27T18:29:42.293Z,31.98
2022-11-27T18:32:11.671Z,33.13
2022-11-27T18:34:40.458Z,31.00
2022-11-27T18:37:08.284Z,30.40
2022-11-27T18:39:36.669Z,29.90
2022-11-27T18:42:06.001Z,29.75
2022-11-27T18:44:37.302Z,30.10
2022-11-27T18:47:10.172Z,28.63
2022-11-27T18:49:39.290Z,28.90
2022-11-27T18:52:08.704Z,29.50
2022-11-27T18:54:37.357Z,28.90
2022-11-27T18:57:07.060Z,28.77
2022-11-27T18:59:35.062Z,28.23
2022-11-27T19:02:04.266Z,28.27
2022-11-27T19:04:34.474Z,30.25
2022-11-27T19:07:02.429Z,29.88
2022-11-27T19:09:30.396Z,31.05
2022-11-27T19:11:58.836Z,28.88
2022-11-27T19:14:26.585Z,27.95
2022-11-27T19:16:54.386Z,28.95
2022-11-27T19:19:53.310Z,29.13
2022-11-27T19:22:12.903Z,28.23
2022-11-27T19:24:41.156Z,28.67
2022-11-27T19:27:09.168Z,29.50
2022-11-27T19:29:37.182Z,27.90
2022-11-27T19:32:05.394Z,27.67
2022-11-27T19:34:33.390Z,26.25
2022-11-27T19:37:01.558Z,25.40
2022-11-27T19:39:29.525Z,24.98
2022-11-27T19:41:58.080Z,24.92
2022-11-27T19:44:26.673Z,24.00
2022-11-27T19:46:54.863Z,23.85
2022-11-27T19:49:23.944Z,23.25
2022-11-27T19:51:52.248Z,23.60
2022-11-27T19:54:21.850Z,22.98
2022-11-27T19:56:51.265Z,22.92
2022-11-27T19:59:22.877Z,21.77
2022-11-27T20:01:54.259Z,21.65
2022-11-27T20:04:26.833Z,21.73
2022-11-27T20:06:55.191Z,20.98
2022-11-27T20:09:23.788Z,21.83
2022-11-27T20:11:51.748Z,20.23
2022-11-27T20:14:20.165Z,20.38
2022-11-27T20:16:48.291Z,20.45
2022-11-27T20:19:17.012Z,20.08
2022-11-27T20:21:45.709Z,19.70
2022-11-27T20:24:14.667Z,20.50
2022-11-27T20:26:43.272Z,19.27
2022-11-27T20:29:13.471Z,19.48
2022-11-27T20:31:43.829Z,18.65
2022-11-27T20:34:18.399Z,18.10
2022-11-27T20:36:46.781Z,18.50
2022-11-27T20:39:20.543Z,18.85
2022-11-27T20:41:49.921Z,18.45
2022-11-27T20:44:18.676Z,17.67
2022-11-27T20:46:46.741Z,17.63
2022-11-27T20:49:15.182Z,18.23
2022-11-27T20:51:43.366Z,18.02
2022-11-27T20:54:11.774Z,17.48
2022-11-27T20:56:40.904Z,17.70
2022-11-27T20:59:09.138Z,17.42
2022-11-27T21:01:37.617Z,16.90
2022-11-27T21:04:11.108Z,17.10
2022-11-27T21:06:43.698Z,16.88
2022-11-27T21:09:13.977Z,16.83
2022-11-27T21:11:43.594Z,16.75
2022-11-27T21:14:14.702Z,17.60
2022-11-27T21:16:48.394Z,16.73
2022-11-27T21:19:24.413Z,16.10
2022-11-27T21:21:53.547Z,15.98
2022-11-27T21:24:25.790Z,16.13
2022-11-27T21:26:53.549Z,16.50
2022-11-27T21:29:25.412Z,15.63
2022-11-27T21:31:55.415Z,16.02
2022-11-27T21:34:24.345Z,16.52
2022-11-27T21:36:51.972Z,15.65
2022-11-27T21:39:22.403Z,15.00
2022-11-27T21:41:54.712Z,16.08
2022-11-27T21:44:24.526Z,16.42
2022-11-27T21:46:52.192Z,15.80
2022-11-27T21:49:20.792Z,16.20
2022-11-27T21:51:53.576Z,16.58
2022-11-27T21:54:24.943Z,20.92
2022-11-27T21:56:53.431Z,20.30
2022-11-27T21:59:21.108Z,20.08
2022-11-27T22:01:48.848Z,19.83
2022-11-27T22:04:16.562Z,20.20
2022-11-27T22:06:45.235Z,19.30
2022-11-27T22:09:15.701Z,18.58
2022-11-27T22:11:45.771Z,20.45
2022-11-27T22:14:15.538Z,19.30
2022-11-27T22:16:46.415Z,18.85
2022-11-27T22:19:16.580Z,18.50
2022-11-27T22:21:45.093Z,18.65
2022-11-27T22:24:18.256Z,18.65
2022-11-27T22:26:48.143Z,19.10
2022-11-27T22:29:16.174Z,18.17
2022-11-27T22:31:43.738Z,18.08
2022-11-27T22:34:11.279Z,17.52
2022-11-27T22:36:39.457Z,17.35
2022-11-27T22:39:08.381Z,17.70
2022-11-27T22:41:38.308Z,16.55
2022-11-27T22:44:11.616Z,16.38
2022-11-27T22:46:40.996Z,16.73
2022-11-27T22:49:11.768Z,15.85
2022-11-27T22:51:40.020Z,16.73
2022-11-27T22:54:10.741Z,17.05
2022-11-27T22:56:39.747Z,16.67
2022-11-27T23:01:55.282Z,16.10
2022-11-27T23:04:23.043Z,16.52
2022-11-27T23:06:50.892Z,15.77
2022-11-27T23:09:19.016Z,15.60
2022-11-27T23:11:47.045Z,16.17
2022-11-27T23:14:14.538Z,15.70
2022-11-27T23:16:42.118Z,15.48
2022-11-27T23:19:10.708Z,14.57
2022-11-27T23:21:39.046Z,15.80
2022-11-27T23:24:08.642Z,14.88
2022-11-27T23:26:36.349Z,15.40
2022-11-27T23:29:04.067Z,15.95
2022-11-27T23:31:35.270Z,15.82
2022-11-27T23:34:07.511Z,15.70
2022-11-27T23:36:36.004Z,15.93
2022-11-27T23:39:07.848Z,14.75
2022-11-27T23:41:35.307Z,15.15
2022-11-27T23:44:02.879Z,15.35
2022-11-27T23:46:31.339Z,15.30
2022-11-27T23:49:00.012Z,16.02
2022-11-27T23:51:31.976Z,15.68
2022-11-27T23:54:00.529Z,16.13
2022-11-27T23:56:30.884Z,15.95
2022-11-27T23:58:59.489Z,16.23
